Time;durP1;ratioP1;P1;durP2;ratioP2;P2;SDS_P1;SDS_P2;PMS_P1;PMS_P2;Temp;Humidity;BMP_temperature;BMP_pressure;BME280_temperature;BME280_humidity;BME280_pressure;Samples;Min_cycle;Max_cycle;Signal;HPM_P1;HPM_P2
2024/04/01 00:02:02;;;;;;;;;;;;;;;16.09;54.06;95196.18;108614;1275;123647;-86
2024/04/01 00:04:29;;;;;;;;;;;;;;;16.05;54.31;95193.10;108679;1280;22647;-87
2024/04/01 00:06:56;;;;;;;;;;;;;;;16.01;54.69;95191.12;108596;1275;123824;-86
2024/04/01 00:09:22;;;;;;;;;;;;;;;15.99;54.57;95196.66;108671;1273;24257;-87
2024/04/01 00:11:49;;;;;;;;;;;;;;;15.98;54.61;95200.10;108636;1279;124052;-86
2024/04/01 00:14:15;;;;;;;;;;;;;;;15.94;54.75;95187.31;108756;1273;22583;-86
2024/04/01 00:16:43;;;;;;;;;;;;;;;15.93;54.87;95187.34;108587;1280;22504;-86
2024/04/01 00:19:09;;;;;;;;;;;;;;;15.89;55.01;95188.81;108565;1278;123655;-86
2024/04/01 00:21:36;;;;;;;;;;;;;;;15.86;54.89;95186.08;108714;1280;23312;-86
2024/04/01 00:24:02;;;;;;;;;;;;;;;15.84;55.05;95179.18;108550;1280;123973;-87
2024/04/01 00:26:28;;;;;;;;;;;;;;;15.82;54.79;95168.52;108677;1272;22511;-86
2024/04/01 00:28:55;;;;;;;;;;;;;;;15.82;54.90;95166.65;108740;1280;22528;-87
2024/04/01 00:31:29;;;;;;;;;;;;;;;15.83;54.92;95168.33;108663;1273;123743;-87
2024/04/01 00:33:56;;;;;;;;;;;;;;;15.83;54.87;95166.28;108672;1275;22522;-86
2024/04/01 00:36:22;;;;;;;;;;;;;;;15.82;54.91;95152.13;108495;1280;123878;-86
2024/04/01 00:38:50;;;;;;;;;;;;;;;15.78;54.87;95153.02;108684;1280;23837;-86
2024/04/01 00:41:16;;;;;;;;;;;;;;;15.77;55.04;95146.60;108609;1275;23851;-86
2024/04/01 00:43:43;;;;;;;;;;;;;;;15.71;55.58;95131.25;108502;1280;123877;-86
2024/04/01 00:46:09;;;;;;;;;;;;;;;15.68;55.89;95124.92;108612;1280;22585;-86
2024/04/01 00:48:35;;;;;;;;;;;;;;;15.63;56.05;95124.20;108556;1273;123841;-86
2024/04/01 00:51:02;;;;;;;;;;;;;;;15.60;56.03;95123.25;108693;1279;24296;-86
2024/04/01 00:53:28;;;;;;;;;;;;;;;15.63;56.02;95112.09;108756;1276;22610;-86
2024/04/01 00:55:55;;;;;;;;;;;;;;;15.62;56.09;95114.97;108517;1280;124063;-86
2024/04/01 00:58:22;;;;;;;;;;;;;;;15.59;56.24;95110.13;108633;1274;22535;-86
2024/04/01 01:00:48;;;;;;;;;;;;;;;15.56;56.21;95109.67;108508;1280;123770;-85
2024/04/01 01:03:15;;;;;;;;;;;;;;;15.54;56.71;95114.10;108616;1275;22514;-85
2024/04/01 01:05:42;;;;;;;;;;;;;;;15.52;56.67;95121.77;108567;1281;124572;-87
2024/04/01 01:08:09;;;;;;;;;;;;;;;15.51;56.54;95133.65;108637;1271;22553;-87
2024/04/01 01:10:35;;;;;;;;;;;;;;;15.51;56.44;95127.48;108602;1280;22626;-86
2024/04/01 01:13:01;;;;;;;;;;;;;;;15.52;56.33;95124.60;108517;1280;123688;-86
2024/04/01 01:15:28;;;;;;;;;;;;;;;15.52;56.18;95122.98;108566;1281;25450;-87
2024/04/01 01:17:54;;;;;;;;;;;;;;;15.49;56.31;95130.17;108448;1280;123845;-86
2024/04/01 01:20:20;;;;;;;;;;;;;;;15.48;56.23;95128.59;108676;1274;22570;-86
2024/04/01 01:22:47;;;;;;;;;;;;;;;15.49;55.95;95136.83;108690;1275;23347;-87
2024/04/01 01:25:13;;;;;;;;;;;;;;;15.50;55.61;95135.84;108586;1280;123863;-86
2024/04/01 01:27:40;;;;;;;;;;;;;;;15.55;55.38;95135.95;108579;1277;22514;-87
2024/04/01 01:30:25;;;;;;;;;;;;;;;15.59;55.24;95141.96;108506;1267;124463;-86
2024/04/01 01:32:52;;;;;;;;;;;;;;;15.61;55.19;95140.67;108688;1267;23259;-86
2024/04/01 01:35:22;;;;;;;;;;;;;;;15.64;55.00;95135.47;108660;1275;22528;-86
2024/04/01 01:38:08;;;;;;;;;;;;;;;15.65;55.31;95135.53;108635;1275;22517;-86
2024/04/01 01:40:35;;;;;;;;;;;;;;;15.61;55.20;95132.80;108573;1282;22571;-86
2024/04/01 01:43:01;;;;;;;;;;;;;;;15.64;55.13;95133.70;108512;1275;123712;-86
2024/04/01 01:45:27;;;;;;;;;;;;;;;15.66;55.11;95128.84;108746;1275;22516;-86
2024/04/01 01:47:54;;;;;;;;;;;;;;;15.66;55.21;95127.58;108648;1273;123854;-87
2024/04/01 01:50:21;;;;;;;;;;;;;;;15.67;54.95;95125.18;108744;1281;22542;-86
2024/04/01 01:52:47;;;;;;;;;;;;;;;15.72;54.97;95133.77;108725;1275;24253;-86
2024/04/01 01:55:14;;;;;;;;;;;;;;;15.72;55.14;95134.40;108556;1278;124119;-87
2024/04/01 01:57:41;;;;;;;;;;;;;;;15.74;55.08;95140.96;108682;1275;23826;-86
2024/04/01 02:00:13;;;;;;;;;;;;;;;15.75;55.25;95147.27;108520;1278;124136;-86
2024/04/01 02:02:40;;;;;;;;;;;;;;;15.73;55.18;95151.02;108597;1275;22543;-86
2024/04/01 02:05:06;;;;;;;;;;;;;;;15.70;55.42;95160.41;108507;1282;22525;-86
2024/04/01 02:07:33;;;;;;;;;;;;;;;15.68;55.54;95153.79;108611;1275;124445;-87
2024/04/01 02:10:00;;;;;;;;;;;;;;;15.65;55.73;95152.28;108570;1282;22542;-86
2024/04/01 02:12:26;;;;;;;;;;;;;;;15.60;56.07;95152.02;108652;1266;124027;-86
2024/04/01 02:14:53;;;;;;;;;;;;;;;15.56;56.01;95146.94;108626;1267;24402;-86
2024/04/01 02:17:19;;;;;;;;;;;;;;;15.57;56.03;95142.36;108567;1280;25314;-86
2024/04/01 02:19:45;;;;;;;;;;;;;;;15.58;56.32;95140.08;108570;1275;123895;-87
2024/04/01 02:22:13;;;;;;;;;;;;;;;15.58;56.47;95127.27;108681;1275;22533;-86
2024/04/01 02:24:40;;;;;;;;;;;;;;;15.61;56.49;95129.91;108632;1273;123960;-86
2024/04/01 02:27:07;;;;;;;;;;;;;;;15.61;56.51;95122.63;108672;1280;22500;-86
2024/04/01 02:29:33;;;;;;;;;;;;;;;15.57;56.88;95130.41;108676;1274;22471;-86
2024/04/01 02:31:59;;;;;;;;;;;;;;;15.56;57.19;95121.88;108619;1275;123835;-86
2024/04/01 02:34:26;;;;;;;;;;;;;;;15.59;57.66;95120.78;108617;1275;22523;-86
2024/04/01 02:36:52;;;;;;;;;;;;;;;15.61;58.05;95115.89;108536;1275;123894;-86
2024/04/01 02:39:18;;;;;;;;;;;;;;;15.67;58.16;95110.05;108673;1275;22503;-86
2024/04/01 02:41:45;;;;;;;;;;;;;;;15.67;58.39;95097.06;108599;1273;124209;-86
2024/04/01 02:44:12;;;;;;;;;;;;;;;15.65;58.96;95097.73;108647;1275;22531;-86
2024/04/01 02:46:39;;;;;;;;;;;;;;;15.66;59.04;95110.40;108674;1275;22711;-86
2024/04/01 02:49:05;;;;;;;;;;;;;;;15.67;59.24;95101.88;108583;1275;123977;-86
2024/04/01 02:51:32;;;;;;;;;;;;;;;15.63;59.34;95103.45;108561;1280;22515;-86
2024/04/01 02:53:58;;;;;;;;;;;;;;;15.58;59.61;95089.02;108590;1280;124035;-86
2024/04/01 02:56:24;;;;;;;;;;;;;;;15.58;59.69;95091.30;108665;1275;22511;-86
2024/04/01 02:58:52;;;;;;;;;;;;;;;15.57;59.80;95086.02;108660;1280;22555;-87
2024/04/01 03:01:18;;;;;;;;;;;;;;;15.57;59.95;95078.73;108582;1280;123962;-86
2024/04/01 03:03:48;;;;;;;;;;;;;;;15.55;60.15;95076.73;108667;1276;24193;-86
2024/04/01 03:06:17;;;;;;;;;;;;;;;15.54;60.43;95072.42;108558;1281;124884;-87
2024/04/01 03:08:44;;;;;;;;;;;;;;;15.52;60.96;95084.66;108591;1280;22506;-86
2024/04/01 03:11:13;;;;;;;;;;;;;;;15.55;60.90;95087.30;108696;1275;22522;-86
2024/04/01 03:13:40;;;;;;;;;;;;;;;15.55;60.77;95062.38;108443;1280;123835;-86
2024/04/01 03:16:06;;;;;;;;;;;;;;;15.58;60.73;95069.90;108616;1280;22528;-86
2024/04/01 03:18:33;;;;;;;;;;;;;;;15.55;60.91;95082.02;108527;1275;124297;-87
2024/04/01 03:21:00;;;;;;;;;;;;;;;15.53;61.14;95090.37;108637;1271;22505;-86
2024/04/01 03:23:26;;;;;;;;;;;;;;;15.49;61.29;95087.77;108668;1275;26366;-86
2024/04/01 03:25:52;;;;;;;;;;;;;;;15.46;61.27;95095.00;108673;1277;123926;-86
2024/04/01 03:28:19;;;;;;;;;;;;;;;15.44;61.62;95085.64;108585;1275;23230;-86
2024/04/01 03:30:46;;;;;;;;;;;;;;;15.43;61.58;95089.13;108417;1277;124317;-86
2024/04/01 03:33:12;;;;;;;;;;;;;;;15.44;61.53;95087.78;108636;1268;22529;-86
2024/04/01 03:35:39;;;;;;;;;;;;;;;15.43;61.78;95076.94;108620;1280;22513;-86
2024/04/01 03:38:06;;;;;;;;;;;;;;;15.42;61.99;95066.45;108472;1275;123925;-86
2024/04/01 03:40:32;;;;;;;;;;;;;;;15.42;62.07;95061.06;108626;1273;22507;-86
2024/04/01 03:42:59;;;;;;;;;;;;;;;15.43;62.35;95050.44;108475;1276;124063;-86
2024/04/01 03:45:25;;;;;;;;;;;;;;;15.45;62.45;95049.27;108473;1280;22510;-87
2024/04/01 03:47:54;;;;;;;;;;;;;;;15.47;62.47;95043.50;108528;1275;124142;-86
2024/04/01 03:50:20;;;;;;;;;;;;;;;15.52;62.30;95045.48;108636;1279;22517;-86
2024/04/01 03:52:46;;;;;;;;;;;;;;;15.56;62.13;95046.95;108659;1275;22571;-86
2024/04/01 03:55:13;;;;;;;;;;;;;;;15.59;62.29;95043.95;108616;1278;123860;-86
2024/04/01 03:57:39;;;;;;;;;;;;;;;15.65;62.09;95040.42;108720;1275;22529;-86
2024/04/01 04:00:07;;;;;;;;;;;;;;;15.72;62.16;95049.45;108579;1275;124012;-86
2024/04/01 04:02:33;;;;;;;;;;;;;;;15.76;61.95;95058.75;108664;1273;22525;-86
2024/04/01 04:04:59;;;;;;;;;;;;;;;15.79;61.84;95068.97;108636;1273;22504;-87
2024/04/01 04:07:26;;;;;;;;;;;;;;;15.79;61.77;95067.30;108571;1275;124669;-86
2024/04/01 04:09:53;;;;;;;;;;;;;;;15.80;61.78;95072.96;108562;1280;22509;-86
2024/04/01 04:12:19;;;;;;;;;;;;;;;15.81;61.64;95073.65;108525;1280;124084;-86
2024/04/01 04:14:46;;;;;;;;;;;;;;;15.78;61.78;95074.14;108607;1275;22500;-85
2024/04/01 04:17:12;;;;;;;;;;;;;;;15.76;61.88;95083.53;108553;1279;22544;-86
2024/04/01 04:19:39;;;;;;;;;;;;;;;15.76;61.98;95091.23;108532;1280;124098;-87
2024/04/01 04:22:06;;;;;;;;;;;;;;;15.76;61.97;95098.04;108710;1275;25533;-87
2024/04/01 04:24:36;;;;;;;;;;;;;;;15.75;62.00;95090.75;108524;1280;123925;-86
2024/04/01 04:27:02;;;;;;;;;;;;;;;15.73;62.24;95089.10;108603;1280;22521;-87
2024/04/01 04:29:29;;;;;;;;;;;;;;;15.71;62.37;95090.61;108553;1280;22499;-87
2024/04/01 04:31:55;;;;;;;;;;;;;;;15.71;62.44;95078.56;108528;1280;123913;-87
2024/04/01 04:34:22;;;;;;;;;;;;;;;15.71;62.26;95071.80;108605;1275;24012;-87
2024/04/01 04:36:49;;;;;;;;;;;;;;;15.70;62.28;95064.25;108605;1280;124672;-87
2024/04/01 04:39:25;;;;;;;;;;;;;;;15.68;62.66;95069.52;108604;1278;22500;-87
2024/04/01 04:41:51;;;;;;;;;;;;;;;15.65;62.86;95052.58;108529;1273;124108;-87
2024/04/01 04:44:18;;;;;;;;;;;;;;;15.65;62.75;95042.58;108599;1273;22562;-87
2024/04/01 04:46:44;;;;;;;;;;;;;;;15.65;63.15;95031.00;108592;1278;22500;-87
2024/04/01 04:49:11;;;;;;;;;;;;;;;15.65;62.87;95029.02;108614;1275;123862;-87
2024/04/01 04:51:37;;;;;;;;;;;;;;;15.67;62.76;95027.45;108680;1273;22519;-87
2024/04/01 04:54:04;;;;;;;;;;;;;;;15.69;62.85;95033.19;108459;1281;124025;-87
2024/04/01 04:56:31;;;;;;;;;;;;;;;15.70;62.86;95033.52;108687;1280;22505;-87
2024/04/01 04:58:57;;;;;;;;;;;;;;;15.71;62.90;95028.49;108695;1277;22542;-87
2024/04/01 05:01:24;;;;;;;;;;;;;;;15.72;62.85;95035.41;108543;1274;124387;-87
2024/04/01 05:03:51;;;;;;;;;;;;;;;15.75;62.83;95030.30;108583;1280;22536;-86
2024/04/01 05:06:17;;;;;;;;;;;;;;;15.76;62.96;95035.14;108463;1273;124932;-86
2024/04/01 05:08:45;;;;;;;;;;;;;;;15.79;62.97;95040.53;108571;1280;22525;-86
2024/04/01 05:11:11;;;;;;;;;;;;;;;15.81;62.77;95028.50;108616;1270;22588;-86
2024/04/01 05:13:38;;;;;;;;;;;;;;;15.85;62.74;95016.11;108429;1280;123885;-87
2024/04/01 05:16:05;;;;;;;;;;;;;;;15.88;62.93;95007.60;108530;1280;24236;-87
2024/04/01 05:18:32;;;;;;;;;;;;;;;15.89;62.71;94993.94;108471;1280;123850;-86
2024/04/01 05:20:58;;;;;;;;;;;;;;;15.91;62.93;94998.98;108479;1280;22512;-87
2024/04/01 05:23:25;;;;;;;;;;;;;;;15.93;62.72;94992.98;108567;1280;22545;-86
2024/04/01 05:25:51;;;;;;;;;;;;;;;15.98;62.66;94978.79;108569;1280;123865;-86
2024/04/01 05:28:17;;;;;;;;;;;;;;;16.01;62.93;94992.69;108633;1280;22544;-86
2024/04/01 05:30:46;;;;;;;;;;;;;;;16.04;62.56;94979.71;108459;1270;123974;-86
2024/04/01 05:33:18;;;;;;;;;;;;;;;16.07;62.93;94982.14;108603;1273;22519;-85
2024/04/01 05:35:45;;;;;;;;;;;;;;;16.10;62.48;94963.62;108454;1275;123974;-85
2024/04/01 05:38:11;;;;;;;;;;;;;;;16.13;62.66;94972.79;108622;1274;22513;-86
2024/04/01 05:40:38;;;;;;;;;;;;;;;16.12;62.48;94971.15;108612;1280;22556;-86
2024/04/01 05:43:06;;;;;;;;;;;;;;;16.13;62.58;94976.04;108451;1278;123981;-85
2024/04/01 05:45:33;;;;;;;;;;;;;;;16.14;62.58;94967.60;108575;1280;22509;-86
2024/04/01 05:47:59;;;;;;;;;;;;;;;16.17;62.32;94957.40;108392;1280;124058;-86
2024/04/01 05:50:26;;;;;;;;;;;;;;;16.23;62.53;94971.58;108507;1275;25189;-86
2024/04/01 05:52:52;;;;;;;;;;;;;;;16.25;62.24;94968.91;108531;1275;25246;-86
2024/04/01 05:55:19;;;;;;;;;;;;;;;16.28;62.11;94966.60;108500;1270;123864;-86
2024/04/01 05:57:45;;;;;;;;;;;;;;;16.32;62.09;94960.65;108627;1280;24319;-86
2024/04/01 06:00:12;;;;;;;;;;;;;;;16.33;62.00;94973.34;108422;1280;124087;-87
2024/04/01 06:02:38;;;;;;;;;;;;;;;16.35;62.02;94984.31;108562;1275;22501;-86
2024/04/01 06:05:05;;;;;;;;;;;;;;;16.36;62.07;95000.62;108510;1275;23135;-86
2024/04/01 06:07:32;;;;;;;;;;;;;;;16.39;61.92;95030.26;108496;1280;124523;-86
2024/04/01 06:09:59;;;;;;;;;;;;;;;16.43;62.03;95043.91;108744;1278;24387;-86
2024/04/01 06:12:29;;;;;;;;;;;;;;;16.45;62.14;95063.25;108599;1275;124101;-86
2024/04/01 06:14:55;;;;;;;;;;;;;;;16.45;62.15;95063.89;108636;1274;22534;-86
2024/04/01 06:17:21;;;;;;;;;;;;;;;16.48;62.16;95054.61;108556;1275;24241;-86
2024/04/01 06:19:48;;;;;;;;;;;;;;;16.50;61.69;95044.56;108618;1280;123892;-86
2024/04/01 06:22:14;;;;;;;;;;;;;;;16.54;62.10;95046.05;108674;1275;25358;-86
2024/04/01 06:24:40;;;;;;;;;;;;;;;16.55;62.30;95046.95;108594;1280;123892;-86
2024/04/01 06:27:07;;;;;;;;;;;;;;;16.55;62.27;95042.33;108567;1280;23187;-87
2024/04/01 06:29:34;;;;;;;;;;;;;;;16.56;62.50;95046.53;108625;1275;22506;-87
2024/04/01 06:32:01;;;;;;;;;;;;;;;16.54;62.42;95036.92;108665;1278;123732;-87
2024/04/01 06:34:27;;;;;;;;;;;;;;;16.55;62.01;95024.88;108633;1275;23358;-85
2024/04/01 06:36:54;;;;;;;;;;;;;;;16.59;62.22;95029.72;108596;1280;123833;-86
2024/04/01 06:39:20;;;;;;;;;;;;;;;16.60;62.29;95009.08;108538;1273;22525;-86
2024/04/01 06:41:46;;;;;;;;;;;;;;;16.62;62.31;94996.40;108407;1271;124036;-86
2024/04/01 06:44:13;;;;;;;;;;;;;;;16.65;62.02;94974.86;108657;1274;22589;-86
2024/04/01 06:46:40;;;;;;;;;;;;;;;16.70;61.99;94960.59;108601;1280;22513;-86
2024/04/01 06:49:06;;;;;;;;;;;;;;;16.77;61.27;94946.68;108503;1275;123865;-86
2024/04/01 06:51:32;;;;;;;;;;;;;;;16.85;61.47;94942.67;108607;1280;22530;-86
2024/04/01 06:54:00;;;;;;;;;;;;;;;16.97;60.59;94933.92;108577;1280;124024;-85
2024/04/01 06:56:28;;;;;;;;;;;;;;;17.09;60.74;94928.50;108584;1278;22532;-85
2024/04/01 06:58:54;;;;;;;;;;;;;;;17.20;60.02;94917.61;108510;1281;25314;-85
2024/04/01 07:01:20;;;;;;;;;;;;;;;17.28;60.11;94918.01;108611;1273;123922;-86
2024/04/01 07:03:47;;;;;;;;;;;;;;;17.39;59.73;94913.09;108496;1280;22897;-86
2024/04/01 07:06:13;;;;;;;;;;;;;;;17.50;59.68;94909.44;108530;1280;123999;-86
2024/04/01 07:08:40;;;;;;;;;;;;;;;17.62;58.98;94911.30;108617;1275;22503;-86
2024/04/01 07:11:06;;;;;;;;;;;;;;;17.75;58.81;94912.23;108710;1268;22866;-86
2024/04/01 07:13:33;;;;;;;;;;;;;;;17.86;58.92;94898.73;108441;1280;123954;-85
2024/04/01 07:15:59;;;;;;;;;;;;;;;17.98;58.53;94910.23;108671;1280;22517;-86
2024/04/01 07:18:28;;;;;;;;;;;;;;;18.09;58.07;94936.05;108574;1273;123985;-86
2024/04/01 07:20:54;;;;;;;;;;;;;;;18.19;57.59;94952.34;108575;1275;22506;-86
2024/04/01 07:23:21;;;;;;;;;;;;;;;18.26;57.36;94963.91;108532;1278;23826;-88
2024/04/01 07:25:47;;;;;;;;;;;;;;;18.29;56.02;94977.73;108479;1278;123985;-88
2024/04/01 07:28:14;;;;;;;;;;;;;;;18.34;56.28;94978.83;108590;1275;22500;-87
2024/04/01 07:30:40;;;;;;;;;;;;;;;18.39;55.88;94982.94;108392;1280;123923;-87
2024/04/01 07:33:06;;;;;;;;;;;;;;;18.42;55.57;94984.89;108540;1275;22538;-87
2024/04/01 07:35:33;;;;;;;;;;;;;;;18.43;55.03;94980.35;108574;1276;26259;-88
2024/04/01 07:37:59;;;;;;;;;;;;;;;18.47;55.54;94982.92;108587;1280;124317;-87
2024/04/01 07:40:26;;;;;;;;;;;;;;;18.52;55.71;94991.75;108602;1278;25231;-87
2024/04/01 07:42:52;;;;;;;;;;;;;;;18.63;55.14;94977.34;108541;1275;124074;-88
2024/04/01 07:45:18;;;;;;;;;;;;;;;18.76;54.35;94981.55;108545;1276;22550;-89
2024/04/01 07:47:45;;;;;;;;;;;;;;;18.84;54.77;94976.45;108502;1275;124000;-89
2024/04/01 07:50:11;;;;;;;;;;;;;;;18.90;55.14;94974.20;108609;1275;22534;-89
2024/04/01 07:52:38;;;;;;;;;;;;;;;18.91;54.80;94975.36;108616;1275;22539;-88
2024/04/01 07:55:06;;;;;;;;;;;;;;;18.95;54.62;94969.65;108610;1273;123840;-88
2024/04/01 07:57:32;;;;;;;;;;;;;;;19.02;54.78;94965.09;108555;1275;22515;-89
2024/04/01 07:59:59;;;;;;;;;;;;;;;19.10;53.69;94968.13;108520;1281;124129;-87
2024/04/01 08:02:25;;;;;;;;;;;;;;;19.18;54.41;94962.72;108712;1274;22596;-88
2024/04/01 08:04:52;;;;;;;;;;;;;;;19.25;53.86;94968.96;108721;1275;22579;-88
2024/04/01 08:07:18;;;;;;;;;;;;;;;19.26;54.00;94956.05;108462;1275;123920;-89
2024/04/01 08:09:44;;;;;;;;;;;;;;;19.19;53.26;94960.88;108611;1280;23255;-89
2024/04/01 08:12:11;;;;;;;;;;;;;;;19.11;53.17;94964.17;108464;1280;124131;-88
2024/04/01 08:14:37;;;;;;;;;;;;;;;19.06;53.00;94963.83;108729;1280;22505;-88
2024/04/01 08:17:04;;;;;;;;;;;;;;;19.03;53.26;94963.67;108974;1280;22622;-89
2024/04/01 08:19:30;;;;;;;;;;;;;;;19.04;53.14;94953.98;108918;1280;123852;-88
2024/04/01 08:21:57;;;;;;;;;;;;;;;19.08;53.24;94948.97;108833;1273;22590;-89
2024/04/01 08:24:23;;;;;;;;;;;;;;;19.11;52.88;94931.73;108616;1278;124233;-90
2024/04/01 08:26:50;;;;;;;;;;;;;;;19.19;53.18;94929.86;108605;1280;23240;-88
2024/04/01 08:29:16;;;;;;;;;;;;;;;19.28;52.91;94928.45;108612;1273;23216;-89
2024/04/01 08:31:42;;;;;;;;;;;;;;;19.35;52.32;94917.65;108557;1281;124032;-89
2024/04/01 08:34:09;;;;;;;;;;;;;;;19.41;52.20;94920.69;108598;1280;24293;-89
2024/04/01 08:36:36;;;;;;;;;;;;;;;19.48;52.56;94910.15;108683;1275;123844;-89
2024/04/01 08:39:03;;;;;;;;;;;;;;;19.56;52.21;94906.67;108633;1280;25451;-88
2024/04/01 08:41:34;;;;;;;;;;;;;;;19.62;52.63;94900.03;108584;1278;25503;-88
2024/04/01 08:44:13;;;;;;;;;;;;;;;19.68;52.54;94907.37;108667;1275;123681;-88
2024/04/01 08:46:40;;;;;;;;;;;;;;;19.73;52.69;94909.77;108646;1280;22515;-89
2024/04/01 08:49:10;;;;;;;;;;;;;;;19.79;52.05;94923.15;108600;1275;123874;-89
2024/04/01 08:51:36;;;;;;;;;;;;;;;19.81;52.04;94912.70;108664;1280;22582;-87
2024/04/01 08:54:03;;;;;;;;;;;;;;;19.83;52.06;94911.20;108489;1275;124207;-89
2024/04/01 08:56:30;;;;;;;;;;;;;;;19.88;51.77;94922.79;108632;1280;22519;-89
2024/04/01 08:58:56;;;;;;;;;;;;;;;19.90;50.83;94918.50;108619;1281;22533;-89
2024/04/01 09:01:23;;;;;;;;;;;;;;;19.92;51.79;94911.46;108452;1280;124333;-89
2024/04/01 09:03:49;;;;;;;;;;;;;;;19.98;51.86;94915.37;108643;1275;25266;-89
2024/04/01 09:06:16;;;;;;;;;;;;;;;20.02;51.85;94908.28;108690;1280;124323;-89
2024/04/01 09:08:44;;;;;;;;;;;;;;;20.05;51.85;94917.43;108635;1278;22585;-89
2024/04/01 09:11:11;;;;;;;;;;;;;;;20.10;52.32;94909.05;108572;1278;22550;-89
2024/04/01 09:13:38;;;;;;;;;;;;;;;20.16;52.36;94899.77;108503;1280;124139;-89
2024/04/01 09:16:04;;;;;;;;;;;;;;;20.25;52.25;94896.79;108647;1280;22516;-89
2024/04/01 09:18:36;;;;;;;;;;;;;;;20.34;52.07;94897.23;108512;1280;123895;-89
2024/04/01 09:21:06;;;;;;;;;;;;;;;20.38;51.57;94894.77;108580;1280;25377;-89
2024/04/01 09:23:32;;;;;;;;;;;;;;;20.43;50.87;94896.90;108715;1275;22533;-88
2024/04/01 09:25:59;;;;;;;;;;;;;;;20.51;50.31;94885.70;108446;1281;123759;-90
2024/04/01 09:28:26;;;;;;;;;;;;;;;20.57;51.51;94881.05;108698;1280;22512;-90
2024/04/01 09:30:53;;;;;;;;;;;;;;;20.61;49.79;94884.26;108514;1280;124143;-89
2024/04/01 09:33:19;;;;;;;;;;;;;;;20.64;50.36;94878.73;108626;1280;22728;-89
2024/04/01 09:35:48;;;;;;;;;;;;;;;20.65;50.79;94883.52;108464;1278;124045;-89
2024/04/01 09:38:15;;;;;;;;;;;;;;;20.65;50.25;94877.66;108744;1280;22556;-90
2024/04/01 09:40:42;;;;;;;;;;;;;;;20.66;49.86;94869.23;108666;1278;22509;-90
2024/04/01 09:43:08;;;;;;;;;;;;;;;20.67;50.32;94862.89;108533;1280;122841;-89
2024/04/01 09:45:38;;;;;;;;;;;;;;;20.72;50.11;94859.08;108599;1281;22963;-89
2024/04/01 09:48:05;;;;;;;;;;;;;;;20.75;49.99;94856.92;108575;1280;124054;-89
2024/04/01 09:50:31;;;;;;;;;;;;;;;20.78;50.23;94858.14;108634;1275;22536;-89
2024/04/01 09:53:00;;;;;;;;;;;;;;;20.82;49.29;94851.55;108641;1278;22536;-89
2024/04/01 09:55:28;;;;;;;;;;;;;;;20.86;48.91;94849.83;108638;1275;123986;-88
2024/04/01 09:58:13;;;;;;;;;;;;;;;20.90;48.75;94842.11;108671;1278;22530;-88
2024/04/01 10:01:12;;;;;;;;;;;;;;;20.97;48.89;94842.70;108561;1272;124002;-88
2024/04/01 10:03:51;;;;;;;;;;;;;;;21.09;49.45;94834.52;108530;1278;22758;-89
2024/04/01 10:06:28;;;;;;;;;;;;;;;21.18;50.34;94832.77;108648;1276;124085;-89
2024/04/01 10:09:01;;;;;;;;;;;;;;;21.27;48.62;94832.88;108637;1274;22523;-89
2024/04/01 10:11:30;;;;;;;;;;;;;;;21.33;48.52;94838.77;108713;1274;24324;-89
2024/04/01 10:14:11;;;;;;;;;;;;;;;21.40;48.63;94828.14;108668;1277;123837;-89
2024/04/01 10:16:46;;;;;;;;;;;;;;;21.45;49.17;94828.70;108616;1280;22911;-89
2024/04/01 10:19:20;;;;;;;;;;;;;;;21.49;48.26;94833.56;108582;1280;123903;-89
2024/04/01 10:22:06;;;;;;;;;;;;;;;21.51;46.56;94824.17;108396;1280;419037;-89
2024/04/01 10:24:38;;;;;;;;;;;;;;;21.54;47.49;94825.55;108672;1278;124124;-89
2024/04/01 10:27:16;;;;;;;;;;;;;;;21.57;47.34;94823.28;108722;1280;22518;-90
2024/04/01 10:29:57;;;;;;;;;;;;;;;21.64;47.65;94823.70;108500;1280;124051;-89
2024/04/01 10:32:43;;;;;;;;;;;;;;;21.70;47.31;94814.67;108747;1278;22511;-90
2024/04/01 10:35:13;;;;;;;;;;;;;;;21.80;47.07;94818.11;108629;1280;22514;-91
2024/04/01 10:37:46;;;;;;;;;;;;;;;21.84;46.17;94826.61;108549;1280;124171;-90
2024/04/01 10:40:29;;;;;;;;;;;;;;;21.86;46.36;94819.69;108783;1280;24375;-89
2024/04/01 10:43:06;;;;;;;;;;;;;;;21.89;45.28;94806.91;108567;1278;123973;-90
2024/04/01 10:45:39;;;;;;;;;;;;;;;21.90;45.82;94806.41;108588;1271;22619;-90
2024/04/01 10:48:14;;;;;;;;;;;;;;;21.92;45.73;94804.14;108509;1280;124076;-90
2024/04/01 10:50:46;;;;;;;;;;;;;;;21.96;45.36;94810.00;108802;1269;22571;-90
2024/04/01 10:53:31;;;;;;;;;;;;;;;21.99;45.01;94806.48;108827;1280;22547;-90
2024/04/01 10:56:16;;;;;;;;;;;;;;;22.01;44.96;94793.63;108535;1281;123642;-89
2024/04/01 10:58:43;;;;;;;;;;;;;;;22.03;46.05;94789.27;108741;1280;23256;-90
2024/04/01 11:01:18;;;;;;;;;;;;;;;22.01;44.66;94794.22;108661;1280;123911;-91
2024/04/01 11:03:54;;;;;;;;;;;;;;;22.00;43.80;94783.17;108717;1275;24184;-90
2024/04/01 11:06:37;;;;;;;;;;;;;;;22.04;43.84;94782.26;108636;1280;124018;-91
2024/04/01 11:09:05;;;;;;;;;;;;;;;22.11;44.40;94778.92;108758;1275;22529;-90
2024/04/01 11:11:36;;;;;;;;;;;;;;;22.14;43.01;94774.50;108818;1274;22543;-90
2024/04/01 11:14:02;;;;;;;;;;;;;;;22.18;43.43;94778.00;108573;1275;123969;-90
2024/04/01 11:16:30;;;;;;;;;;;;;;;22.24;43.48;94777.36;108652;1280;22558;-90
2024/04/01 11:19:11;;;;;;;;;;;;;;;22.29;43.63;94762.84;108655;1269;123962;-90
2024/04/01 11:21:40;;;;;;;;;;;;;;;22.32;43.97;94763.99;108657;1280;22960;-90
2024/04/01 11:24:11;;;;;;;;;;;;;;;22.32;43.12;94768.61;108686;1272;124355;-90
2024/04/01 11:26:40;;;;;;;;;;;;;;;22.33;43.61;94768.21;108639;1272;22984;-90
2024/04/01 11:29:20;;;;;;;;;;;;;;;22.33;43.11;94761.27;108809;1273;22530;-90
2024/04/01 11:31:56;;;;;;;;;;;;;;;22.33;42.61;94747.66;108736;1276;123899;-90
2024/04/01 11:34:25;;;;;;;;;;;;;;;22.29;40.96;94747.90;108708;1280;24490;-90
2024/04/01 11:36:52;;;;;;;;;;;;;;;22.27;41.21;94731.30;108734;1280;123885;-90
2024/04/01 11:39:18;;;;;;;;;;;;;;;22.26;41.13;94733.41;108766;1280;22631;-89
2024/04/01 11:41:45;;;;;;;;;;;;;;;22.22;39.92;94728.83;108544;1279;124227;-90
2024/04/01 11:44:12;;;;;;;;;;;;;;;22.19;38.89;94728.73;108706;1280;22553;-90
2024/04/01 11:46:39;;;;;;;;;;;;;;;22.18;38.92;94717.65;108624;1278;22527;-89
2024/04/01 11:49:05;;;;;;;;;;;;;;;22.19;39.21;94718.90;108665;1278;124253;-90
2024/04/01 11:51:32;;;;;;;;;;;;;;;22.21;38.56;94704.89;108644;1280;22716;-88
2024/04/01 11:53:58;;;;;;;;;;;;;;;22.23;38.60;94685.17;108649;1280;124094;-89
2024/04/01 11:56:38;;;;;;;;;;;;;;;22.24;39.67;94689.27;108632;1275;22503;-90
2024/04/01 11:59:06;;;;;;;;;;;;;;;22.26;39.20;94701.88;108629;1275;22516;-90
2024/04/01 12:01:34;;;;;;;;;;;;;;;22.28;38.44;94710.41;108517;1280;124018;-90
2024/04/01 12:04:02;;;;;;;;;;;;;;;22.30;38.28;94707.67;108615;1281;23371;-90
2024/04/01 12:06:31;;;;;;;;;;;;;;;22.30;38.63;94710.11;108546;1280;124072;-90
2024/04/01 12:09:03;;;;;;;;;;;;;;;22.31;38.74;94714.48;108617;1268;22599;-90
2024/04/01 12:11:32;;;;;;;;;;;;;;;22.33;38.83;94711.46;108716;1268;22532;-90
2024/04/01 12:13:58;;;;;;;;;;;;;;;22.35;38.55;94711.55;108492;1280;124139;-90
2024/04/01 12:16:24;;;;;;;;;;;;;;;22.35;37.16;94722.70;108818;1275;25326;-90
2024/04/01 12:18:51;;;;;;;;;;;;;;;22.38;37.81;94712.33;108527;1275;123901;-89
2024/04/01 12:21:18;;;;;;;;;;;;;;;22.41;36.75;94708.02;108652;1280;23095;-90
2024/04/01 12:23:45;;;;;;;;;;;;;;;22.44;37.38;94705.84;108532;1278;124155;-89
2024/04/01 12:26:11;;;;;;;;;;;;;;;22.47;36.56;94712.83;108795;1280;23240;-90
2024/04/01 12:28:38;;;;;;;;;;;;;;;22.48;35.83;94699.38;108625;1277;22586;-90
2024/04/01 12:31:04;;;;;;;;;;;;;;;22.46;35.59;94700.83;108585;1280;124051;-89
2024/04/01 12:33:31;;;;;;;;;;;;;;;22.46;35.88;94712.38;108662;1275;22515;-89
2024/04/01 12:35:59;;;;;;;;;;;;;;;22.46;34.84;94700.77;108521;1280;124159;-89
2024/04/01 12:38:25;;;;;;;;;;;;;;;22.47;34.85;94702.09;108599;1280;22549;-90